Time;durP1;ratioP1;P1;durP2;ratioP2;P2;SDS_P1;SDS_P2;PMS_P1;PMS_P2;Temp;Humidity;BMP_temperature;BMP_pressure;BME280_temperature;BME280_humidity;BME280_pressure;Samples;Min_cycle;Max_cycle;Signal;HPM_P1;HPM_P2
2023/07/27 00:01:18;;;;;;;7.00;4.30;;;;;;;13.64;100.00;99824.16;5037493;28;20220;-68
2023/07/27 00:03:44;;;;;;;5.60;3.80;;;;;;;13.54;100.00;99820.59;5037739;28;20209;-69
2023/07/27 00:06:09;;;;;;;4.47;3.90;;;;;;;13.61;100.00;99826.16;5052110;28;20333;-69
2023/07/27 00:08:34;;;;;;;5.37;4.03;;;;;;;13.69;100.00;99835.00;5051436;28;20633;-69
2023/07/27 00:10:59;;;;;;;5.57;4.43;;;;;;;13.66;100.00;99830.06;5044629;28;20225;-69
2023/07/27 00:13:25;;;;;;;5.07;4.10;;;;;;;13.67;100.00;99823.13;5046067;28;20181;-69
2023/07/27 00:15:50;;;;;;;7.53;4.30;;;;;;;13.71;100.00;99829.72;5037579;28;20299;-68
2023/07/27 00:18:15;;;;;;;5.37;4.33;;;;;;;13.72;100.00;99828.81;5051341;28;20178;-69
2023/07/27 00:20:40;;;;;;;4.30;3.90;;;;;;;13.79;100.00;99834.34;5030662;28;20309;-68
2023/07/27 00:23:06;;;;;;;5.90;4.83;;;;;;;13.75;100.00;99818.22;5061714;28;20594;-68
2023/07/27 00:25:31;;;;;;;9.07;4.13;;;;;;;13.63;100.00;99819.94;5052316;28;20177;-68
2023/07/27 00:27:56;;;;;;;5.40;4.43;;;;;;;13.70;100.00;99817.75;5052648;28;20180;-69
2023/07/27 00:30:21;;;;;;;5.40;4.60;;;;;;;13.82;100.00;99814.25;5043107;28;20231;-69
2023/07/27 00:32:47;;;;;;;5.20;4.50;;;;;;;13.87;100.00;99812.16;5065305;28;20181;-67
2023/07/27 00:35:12;;;;;;;6.87;4.20;;;;;;;13.86;100.00;99809.69;5050575;28;20231;-69
2023/07/27 00:37:37;;;;;;;9.60;4.47;;;;;;;13.87;100.00;99809.56;5052579;28;20270;-69
2023/07/27 00:40:03;;;;;;;4.97;4.30;;;;;;;13.85;100.00;99811.47;5047683;28;20260;-69
2023/07/27 00:42:28;;;;;;;4.93;4.23;;;;;;;13.75;100.00;99802.72;5049184;28;20262;-69
2023/07/27 00:44:53;;;;;;;4.70;4.30;;;;;;;13.72;100.00;99806.34;5052026;28;20224;-70
2023/07/27 00:47:19;;;;;;;7.73;4.40;;;;;;;13.76;100.00;99804.38;5050526;28;20284;-69
2023/07/27 00:49:44;;;;;;;6.73;4.57;;;;;;;13.90;100.00;99800.78;5051102;28;20188;-68
2023/07/27 00:52:09;;;;;;;4.97;4.33;;;;;;;13.95;100.00;99798.66;5057286;28;20228;-68
2023/07/27 00:54:35;;;;;;;5.23;3.97;;;;;;;13.91;100.00;99791.28;5051774;28;20296;-68
2023/07/27 00:57:01;;;;;;;6.07;4.17;;;;;;;13.76;100.00;99788.84;5052308;28;20548;-68
2023/07/27 00:59:27;;;;;;;5.43;4.23;;;;;;;13.86;100.00;99787.25;5050873;28;20188;-68
2023/07/27 01:01:53;;;;;;;4.73;4.13;;;;;;;13.99;100.00;99783.75;5055639;28;20250;-68
2023/07/27 01:04:19;;;;;;;6.43;4.20;;;;;;;14.02;100.00;99776.59;5045776;28;20184;-69
2023/07/27 01:06:44;;;;;;;5.10;4.23;;;;;;;14.00;100.00;99775.06;5042074;28;20185;-68
2023/07/27 01:09:10;;;;;;;5.23;4.60;;;;;;;14.08;100.00;99775.31;5052113;28;20633;-69
2023/07/27 01:12:03;;;;;;;6.17;4.63;;;;;;;14.03;100.00;99765.31;5043336;28;20603;-68
2023/07/27 01:14:43;;;;;;;8.53;4.63;;;;;;;13.97;100.00;99768.34;5043498;28;20251;-69
2023/07/27 01:17:29;;;;;;;5.13;4.43;;;;;;;13.95;100.00;99765.03;5050220;28;20544;-68
2023/07/27 01:20:09;;;;;;;4.73;4.17;;;;;;;13.97;100.00;99758.00;5051654;28;20250;-69
2023/07/27 01:23:10;;;;;;;5.00;4.60;;;;;;;13.98;100.00;99758.81;5040333;28;20274;-68
2023/07/27 01:25:46;;;;;;;5.60;4.20;;;;;;;13.98;100.00;99756.25;5051300;28;20656;-67
2023/07/27 01:28:20;;;;;;;4.27;3.87;;;;;;;13.98;100.00;99751.91;5046738;28;20652;-68
2023/07/27 01:30:59;;;;;;;5.40;4.10;;;;;;;13.94;100.00;99752.25;5036395;28;20239;-68
2023/07/27 01:33:33;;;;;;;8.20;4.37;;;;;;;13.94;100.00;99739.31;5026947;28;20387;-68
2023/07/27 01:36:09;;;;;;;4.70;4.30;;;;;;;13.93;100.00;99735.91;5051830;28;20189;-68
2023/07/27 01:38:41;;;;;;;8.60;4.27;;;;;;;13.97;100.00;99736.50;5050171;28;20596;-69
2023/07/27 01:41:08;;;;;;;5.70;4.80;;;;;;;13.98;100.00;99732.97;5042307;28;20228;-68
2023/07/27 01:43:34;;;;;;;5.80;4.80;;;;;;;13.92;100.00;99723.91;5050246;28;20209;-68
2023/07/27 01:46:01;;;;;;;4.80;4.37;;;;;;;13.93;100.00;99729.91;5050833;28;20306;-68
2023/07/27 01:48:28;;;;;;;6.33;4.17;;;;;;;13.94;100.00;99723.81;5051137;28;20178;-68
2023/07/27 01:50:55;;;;;;;6.37;5.60;;;;;;;13.91;100.00;99717.09;5047121;28;20691;-68
2023/07/27 01:53:22;;;;;;;5.30;4.73;;;;;;;13.90;100.00;99714.63;5059674;28;20688;-68
2023/07/27 01:55:48;;;;;;;5.83;4.73;;;;;;;13.83;100.00;99711.66;5050778;28;20173;-67
2023/07/27 01:58:16;;;;;;;4.83;4.30;;;;;;;13.81;100.00;99709.19;5050636;28;20181;-68
2023/07/27 02:00:42;;;;;;;7.67;5.93;;;;;;;13.88;100.00;99715.56;5045190;28;20220;-68
2023/07/27 02:03:10;;;;;;;5.47;4.43;;;;;;;13.81;100.00;99716.16;5060855;28;20208;-67
2023/07/27 02:05:35;;;;;;;6.70;4.63;;;;;;;13.86;100.00;99706.28;5050522;28;20192;-68
2023/07/27 02:08:00;;;;;;;14.10;4.50;;;;;;;13.83;100.00;99709.91;5049863;28;20181;-68
2023/07/27 02:10:28;;;;;;;4.97;4.40;;;;;;;13.91;100.00;99706.75;5043417;28;20551;-69
2023/07/27 02:13:04;;;;;;;9.53;4.63;;;;;;;13.88;100.00;99702.63;5056080;28;20541;-68
2023/07/27 02:15:39;;;;;;;7.70;4.67;;;;;;;13.77;100.00;99699.19;5048751;28;20228;-67
2023/07/27 02:18:14;;;;;;;7.33;4.60;;;;;;;13.66;100.00;99687.91;5050961;28;20185;-68
2023/07/27 02:20:40;;;;;;;5.13;4.73;;;;;;;13.72;100.00;99682.28;5042833;28;20236;-68
2023/07/27 02:23:07;;;;;;;6.67;4.97;;;;;;;13.80;100.00;99684.28;5060606;28;20271;-68
2023/07/27 02:25:33;;;;;;;4.97;4.43;;;;;;;13.87;100.00;99693.22;5050742;28;20250;-67
2023/07/27 02:27:58;;;;;;;5.50;4.53;;;;;;;13.86;100.00;99683.81;5050959;28;20274;-67
2023/07/27 02:30:23;;;;;;;7.00;4.53;;;;;;;13.95;100.00;99686.66;5043630;28;20660;-68
2023/07/27 02:32:49;;;;;;;4.97;4.23;;;;;;;13.95;100.00;99692.66;5063034;28;20202;-68
2023/07/27 02:35:14;;;;;;;6.93;4.30;;;;;;;14.01;100.00;99681.03;5050513;28;20186;-68
2023/07/27 02:37:39;;;;;;;5.53;4.27;;;;;;;14.03;100.00;99677.38;5049452;28;20259;-69
2023/07/27 02:40:06;;;;;;;6.83;4.67;;;;;;;14.00;100.00;99679.38;5041148;28;20641;-69
2023/07/27 02:42:31;;;;;;;5.23;4.73;;;;;;;14.01;100.00;99681.84;5048162;28;20213;-68
2023/07/27 02:44:56;;;;;;;4.50;4.07;;;;;;;14.08;100.00;99686.56;5049195;28;20185;-68
2023/07/27 02:47:21;;;;;;;6.80;4.97;;;;;;;14.11;100.00;99676.78;5049543;28;20185;-68
2023/07/27 02:49:47;;;;;;;5.77;4.97;;;;;;;14.05;100.00;99674.69;5049409;28;20247;-68
2023/07/27 02:52:12;;;;;;;6.50;4.70;;;;;;;14.14;100.00;99674.00;5054943;28;20757;-68
2023/07/27 02:54:37;;;;;;;4.73;4.23;;;;;;;14.18;100.00;99680.56;5050196;28;20174;-68
2023/07/27 02:57:03;;;;;;;4.83;4.43;;;;;;;14.20;100.00;99676.13;5050773;28;20197;-68
2023/07/27 02:59:28;;;;;;;5.00;4.47;;;;;;;14.11;100.00;99678.56;5042908;28;20188;-68
2023/07/27 03:01:53;;;;;;;10.50;5.10;;;;;;;14.17;100.00;99681.50;5026867;28;20232;-68
2023/07/27 03:04:19;;;;;;;6.13;4.50;;;;;;;14.23;100.00;99675.06;5040900;28;20181;-68
2023/07/27 03:06:44;;;;;;;7.20;4.83;;;;;;;14.17;100.00;99676.31;5050461;28;20611;-69
2023/07/27 03:09:09;;;;;;;8.73;4.70;;;;;;;14.24;100.00;99670.69;5050622;28;20178;-69
2023/07/27 03:11:37;;;;;;;6.10;4.60;;;;;;;14.25;100.00;99665.41;5054648;28;20234;-69
2023/07/27 03:14:02;;;;;;;5.37;4.87;;;;;;;14.30;100.00;99658.13;5043599;28;20177;-70
2023/07/27 03:16:27;;;;;;;6.90;4.80;;;;;;;14.34;100.00;99661.28;5044944;28;20247;-68
2023/07/27 03:18:53;;;;;;;5.07;4.40;;;;;;;14.30;100.00;99670.22;5053040;28;20177;-68
2023/07/27 03:21:18;;;;;;;7.57;4.40;;;;;;;14.31;100.00;99664.94;5053205;28;20239;-69
2023/07/27 03:23:43;;;;;;;6.07;4.30;;;;;;;14.28;100.00;99661.78;5059635;28;20270;-69
2023/07/27 03:26:11;;;;;;;7.07;4.43;;;;;;;14.23;100.00;99656.09;5053349;28;20497;-68
2023/07/27 03:28:36;;;;;;;4.83;4.30;;;;;;;14.08;100.00;99652.94;5052936;28;20606;-69
2023/07/27 03:31:01;;;;;;;6.03;4.63;;;;;;;14.19;100.00;99658.13;5013572;28;20225;-69
2023/07/27 03:33:27;;;;;;;6.07;4.03;;;;;;;14.28;100.00;99654.00;5042442;28;20613;-66
2023/07/27 03:35:52;;;;;;;5.30;4.63;;;;;;;14.30;100.00;99652.09;5051779;28;20177;-68
2023/07/27 03:38:17;;;;;;;8.93;4.87;;;;;;;14.29;100.00;99648.72;5052391;28;20291;-68
2023/07/27 03:40:42;;;;;;;5.43;4.40;;;;;;;14.35;100.00;99656.00;5044721;28;20220;-69
2023/07/27 03:43:08;;;;;;;5.77;4.30;;;;;;;14.40;100.00;99647.88;5051962;28;20208;-69
2023/07/27 03:45:33;;;;;;;6.47;4.50;;;;;;;14.40;100.00;99642.72;5053024;28;20221;-68
2023/07/27 03:47:58;;;;;;;8.60;4.77;;;;;;;14.26;100.00;99640.34;5039961;28;20185;-68
2023/07/27 03:50:23;;;;;;;6.53;4.97;;;;;;;14.19;100.00;99640.03;5045520;28;20232;-69
2023/07/27 03:52:49;;;;;;;4.80;4.40;;;;;;;14.26;100.00;99637.78;5065460;28;20224;-68
2023/07/27 03:55:18;;;;;;;5.70;4.83;;;;;;;14.32;100.00;99627.75;5053068;28;20658;-68
2023/07/27 03:57:43;;;;;;;5.03;4.53;;;;;;;14.24;100.00;99627.56;5040923;28;21367;-69
2023/07/27 04:00:11;;;;;;;6.70;4.53;;;;;;;14.31;100.00;99635.66;5043575;28;20306;-68
2023/07/27 04:02:36;;;;;;;6.97;4.83;;;;;;;14.34;100.00;99636.22;5051671;28;20275;-68
2023/07/27 04:05:01;;;;;;;5.53;5.07;;;;;;;14.35;100.00;99637.03;5052466;28;20264;-67
2023/07/27 04:07:27;;;;;;;8.20;5.23;;;;;;;14.16;100.00;99635.88;5053216;28;20537;-68
2023/07/27 04:09:52;;;;;;;9.30;5.37;;;;;;;14.11;100.00;99644.94;5053199;28;20224;-68
2023/07/27 04:12:17;;;;;;;7.00;5.17;;;;;;;14.08;100.00;99642.59;5055491;28;20229;-67
2023/07/27 04:14:43;;;;;;;8.73;5.07;;;;;;;14.16;100.00;99638.47;5035748;28;20225;-68
2023/07/27 04:17:09;;;;;;;7.57;5.17;;;;;;;14.16;100.00;99642.84;5044681;28;20188;-68
2023/07/27 04:19:34;;;;;;;9.93;5.50;;;;;;;14.26;100.00;99636.00;5038196;28;20182;-69
2023/07/27 04:22:00;;;;;;;6.17;5.50;;;;;;;14.15;100.00;99636.84;5035219;28;20279;-68
2023/07/27 04:24:25;;;;;;;7.47;5.23;;;;;;;14.19;100.00;99640.03;5050928;28;20178;-70
2023/07/27 04:26:50;;;;;;;8.83;5.10;;;;;;;14.15;100.00;99634.25;5052703;28;20578;-69
2023/07/27 04:29:15;;;;;;;8.33;5.53;;;;;;;14.04;100.00;99627.31;5051345;28;20185;-69
2023/07/27 04:31:41;;;;;;;6.10;4.93;;;;;;;14.07;100.00;99623.66;5054699;28;20220;-69
2023/07/27 04:34:06;;;;;;;9.97;5.20;;;;;;;14.12;100.00;99628.50;5054396;28;20587;-69
2023/07/27 04:36:31;;;;;;;8.33;5.33;;;;;;;14.10;100.00;99628.59;5052403;28;20177;-69
2023/07/27 04:38:57;;;;;;;8.27;5.40;;;;;;;14.24;100.00;99626.72;5051068;28;20181;-68
2023/07/27 04:41:22;;;;;;;9.03;5.63;;;;;;;14.10;100.00;99626.00;5052379;28;20248;-69
2023/07/27 04:43:48;;;;;;;6.23;5.47;;;;;;;14.25;100.00;99618.00;5057008;28;20552;-68
2023/07/27 04:46:13;;;;;;;6.67;5.70;;;;;;;14.22;100.00;99621.66;5050498;28;20185;-70
2023/07/27 04:48:38;;;;;;;6.30;5.23;;;;;;;14.38;100.00;99626.47;5050925;28;20178;-68
2023/07/27 04:51:03;;;;;;;8.67;5.30;;;;;;;14.28;100.00;99622.97;5043802;28;20228;-68
2023/07/27 04:53:29;;;;;;;7.57;5.77;;;;;;;14.40;100.00;99622.00;5038140;28;20552;-67
2023/07/27 04:55:54;;;;;;;9.63;5.30;;;;;;;14.58;100.00;99617.13;5049115;28;20272;-69
2023/07/27 04:58:19;;;;;;;8.93;5.37;;;;;;;14.73;100.00;99612.53;5050755;28;20188;-69
2023/07/27 05:00:50;;;;;;;7.10;5.17;;;;;;;14.82;100.00;99609.22;5043308;28;20266;-70
2023/07/27 05:03:16;;;;;;;7.17;5.73;;;;;;;14.98;100.00;99613.16;5061114;28;20223;-69
2023/07/27 05:05:44;;;;;;;7.20;5.43;;;;;;;15.05;100.00;99608.31;5050252;28;20178;-69
2023/07/27 05:08:09;;;;;;;7.93;5.63;;;;;;;15.11;100.00;99607.81;5052066;28;20231;-69
2023/07/27 05:10:34;;;;;;;7.93;5.70;;;;;;;14.97;100.00;99606.31;5042729;28;20761;-69
2023/07/27 05:13:00;;;;;;;6.67;5.47;;;;;;;15.00;100.00;99606.91;5055174;28;20186;-68
2023/07/27 05:15:25;;;;;;;5.63;4.83;;;;;;;14.97;100.00;99603.75;5045151;28;20225;-60
2023/07/27 05:17:50;;;;;;;6.00;5.47;;;;;;;14.98;100.00;99597.63;5051701;28;20181;-59
2023/07/27 05:20:15;;;;;;;6.43;5.33;;;;;;;15.11;100.00;99593.09;5043162;28;20212;-60
2023/07/27 05:22:42;;;;;;;7.70;5.80;;;;;;;15.19;100.00;99589.06;5046134;28;20201;-59
2023/07/27 05:25:10;;;;;;;7.60;5.43;;;;;;;15.17;100.00;99589.19;5050865;28;20538;-59
2023/07/27 05:27:35;;;;;;;6.53;5.37;;;;;;;15.13;100.00;99591.19;5051772;28;20188;-59
2023/07/27 05:30:00;;;;;;;7.70;5.63;;;;;;;15.12;100.00;99589.56;5050272;28;20174;-60
2023/07/27 05:32:26;;;;;;;7.00;5.40;;;;;;;15.05;100.00;99583.22;5049282;28;20225;-59
2023/07/27 05:34:51;;;;;;;6.90;5.60;;;;;;;15.31;100.00;99575.91;5050352;28;20184;-60
2023/07/27 05:37:16;;;;;;;8.23;6.20;;;;;;;15.33;100.00;99567.97;5051432;28;20203;-59
2023/07/27 05:39:41;;;;;;;5.80;4.97;;;;;;;15.40;100.00;99568.31;5051342;28;20177;-59
2023/07/27 05:42:07;;;;;;;6.47;5.80;;;;;;;15.38;100.00;99558.09;5035558;28;20232;-60
2023/07/27 05:44:32;;;;;;;6.07;5.50;;;;;;;15.56;100.00;99555.72;5050138;28;20679;-59
2023/07/27 05:46:57;;;;;;;8.47;5.30;;;;;;;15.77;100.00;99550.47;5051533;28;20177;-59
2023/07/27 05:49:23;;;;;;;7.40;5.17;;;;;;;15.60;100.00;99551.09;5051329;28;20549;-59
2023/07/27 05:51:48;;;;;;;7.63;5.67;;;;;;;15.32;100.00;99543.84;5045259;28;20225;-59
2023/07/27 05:54:13;;;;;;;5.80;5.20;;;;;;;15.30;100.00;99544.94;5038380;28;20209;-60
2023/07/27 05:56:40;;;;;;;5.40;4.90;;;;;;;15.27;100.00;99551.19;5051541;28;20193;-59
2023/07/27 05:59:05;;;;;;;10.17;5.17;;;;;;;15.20;100.00;99554.44;5051023;28;20210;-60
2023/07/27 06:01:31;;;;;;;6.33;4.63;;;;;;;15.35;100.00;99557.50;5051839;28;20362;-60
2023/07/27 06:03:56;;;;;;;13.43;9.20;;;;;;;15.30;100.00;99556.09;5054594;28;20571;-60
2023/07/27 06:06:21;;;;;;;6.70;5.27;;;;;;;15.10;100.00;99550.00;5050247;28;20177;-60
2023/07/27 06:08:46;;;;;;;6.87;4.67;;;;;;;15.12;100.00;99547.25;5050966;28;20260;-60
2023/07/27 06:11:12;;;;;;;7.43;4.80;;;;;;;15.20;100.00;99542.28;5050036;28;20228;-60
2023/07/27 06:13:37;;;;;;;5.93;4.90;;;;;;;15.23;100.00;99539.47;5049022;28;20641;-59
2023/07/27 06:16:02;;;;;;;9.63;4.97;;;;;;;15.28;100.00;99537.28;5050616;28;20236;-59
2023/07/27 06:18:28;;;;;;;7.90;5.50;;;;;;;15.45;100.00;99537.66;5051050;28;20177;-59
2023/07/27 06:20:53;;;;;;;7.30;5.47;;;;;;;15.32;100.00;99545.63;5047154;28;20238;-59
2023/07/27 06:23:19;;;;;;;7.47;5.50;;;;;;;15.29;100.00;99553.66;5059381;28;20276;-61
2023/07/27 06:25:45;;;;;;;6.30;4.97;;;;;;;15.11;100.00;99551.63;5050754;28;20552;-60
2023/07/27 06:28:11;;;;;;;10.30;5.17;;;;;;;15.02;100.00;99552.41;5049537;28;20532;-60
2023/07/27 06:30:38;;;;;;;9.73;5.70;;;;;;;15.04;100.00;99553.09;5042051;28;20239;-59
2023/07/27 06:33:04;;;;;;;6.53;5.23;;;;;;;15.03;100.00;99563.59;5051197;28;20523;-68
2023/07/27 06:35:29;;;;;;;10.13;5.70;;;;;;;14.97;100.00;99554.53;5041614;28;20245;-69
2023/07/27 06:37:54;;;;;;;7.40;5.63;;;;;;;14.95;100.00;99552.06;5047666;28;20182;-70
2023/07/27 06:40:20;;;;;;;7.57;5.43;;;;;;;14.89;100.00;99554.34;5042006;28;20234;-69
2023/07/27 06:42:45;;;;;;;7.87;5.40;;;;;;;14.98;100.00;99566.53;5059516;28;20208;-70
2023/07/27 06:45:11;;;;;;;5.83;5.33;;;;;;;14.74;100.00;99554.63;5042092;28;20653;-66
2023/07/27 06:47:36;;;;;;;9.57;5.27;;;;;;;14.74;100.00;99554.63;5038549;28;20185;-67
2023/07/27 06:50:02;;;;;;;5.53;5.03;;;;;;;14.61;100.00;99546.19;5051515;28;20170;-66
2023/07/27 06:52:28;;;;;;;5.90;5.30;;;;;;;14.66;100.00;99551.84;5042624;28;20722;-67
2023/07/27 06:54:54;;;;;;;7.77;5.50;;;;;;;14.77;100.00;99548.38;5044764;28;20181;-66
2023/07/27 06:57:20;;;;;;;7.10;5.47;;;;;;;14.84;100.00;99544.38;5053219;28;20185;-69
2023/07/27 06:59:45;;;;;;;6.87;5.37;;;;;;;14.81;100.00;99553.22;5050172;28;20178;-69
2023/07/27 07:02:10;;;;;;;7.03;5.00;;;;;;;14.82;100.00;99548.84;5045427;28;20256;-68
2023/07/27 07:04:35;;;;;;;6.50;5.90;;;;;;;14.95;100.00;99557.25;5042499;28;20181;-70
2023/07/27 07:07:01;;;;;;;6.57;5.97;;;;;;;15.01;100.00;99561.13;5045003;28;20185;-71
2023/07/27 07:09:26;;;;;;;5.90;5.33;;;;;;;15.03;100.00;99542.84;5054009;28;20205;-70
2023/07/27 07:11:51;;;;;;;10.77;5.50;;;;;;;14.90;100.00;99543.88;5058812;28;20546;-70
2023/07/27 07:14:16;;;;;;;7.70;5.33;;;;;;;14.89;100.00;99534.44;5047858;28;20201;-69
2023/07/27 07:16:42;;;;;;;9.20;5.43;;;;;;;14.93;100.00;99529.84;5052033;28;20216;-69
2023/07/27 07:19:07;;;;;;;8.63;5.80;;;;;;;15.03;100.00;99535.91;5049449;28;20656;-69
2023/07/27 07:21:32;;;;;;;7.33;5.00;;;;;;;14.94;100.00;99537.47;5046880;28;20236;-69
2023/07/27 07:23:58;;;;;;;6.93;5.17;;;;;;;14.72;100.00;99528.03;5043630;28;20213;-69
2023/07/27 07:26:24;;;;;;;5.93;5.10;;;;;;;14.49;100.00;99527.31;5053221;28;20170;-69
2023/07/27 07:28:49;;;;;;;8.23;5.00;;;;;;;14.48;100.00;99517.91;5025226;28;20324;-68
2023/07/27 07:31:14;;;;;;;7.27;5.57;;;;;;;14.62;100.00;99520.16;5007427;28;20301;-69
2023/07/27 07:33:40;;;;;;;6.60;5.57;;;;;;;14.65;100.00;99519.97;5043333;28;20209;-69
2023/07/27 07:36:05;;;;;;;7.57;5.40;;;;;;;14.74;100.00;99522.75;5053077;28;20222;-70
2023/07/27 07:38:30;;;;;;;9.60;5.67;;;;;;;14.70;100.00;99524.78;5053157;28;20186;-70
2023/07/27 07:40:55;;;;;;;6.07;4.80;;;;;;;14.48;100.00;99517.91;5042399;28;20282;-71
2023/07/27 07:43:21;;;;;;;6.93;5.33;;;;;;;14.47;100.00;99517.06;5061714;28;20213;-70
2023/07/27 07:45:46;;;;;;;5.50;4.80;;;;;;;14.53;100.00;99523.50;5051679;28;20539;-69
2023/07/27 07:48:11;;;;;;;8.43;5.20;;;;;;;14.52;100.00;99511.50;5042932;28;20181;-71
2023/07/27 07:50:37;;;;;;;6.03;5.40;;;;;;;14.40;100.00;99502.16;5042053;28;20245;-70
2023/07/27 07:53:03;;;;;;;6.17;4.90;;;;;;;14.36;100.00;99489.47;5054621;28;20693;-72
2023/07/27 07:55:28;;;;;;;6.30;5.70;;;;;;;14.39;100.00;99479.81;5048087;28;20185;-71
2023/07/27 07:57:53;;;;;;;7.13;5.83;;;;;;;14.39;100.00;99477.22;5052081;28;20169;-73
2023/07/27 08:00:18;;;;;;;8.83;5.13;;;;;;;14.25;100.00;99474.00;5041866;28;20258;-70
2023/07/27 08:02:44;;;;;;;6.30;5.70;;;;;;;14.28;100.00;99465.16;5058666;28;20224;-71
2023/07/27 08:05:09;;;;;;;6.60;5.40;;;;;;;14.30;100.00;99468.44;5051146;28;20185;-71
2023/07/27 08:07:35;;;;;;;7.37;5.57;;;;;;;14.32;100.00;99463.97;5053009;28;20194;-71
2023/07/27 08:10:02;;;;;;;7.83;6.30;;;;;;;14.39;100.00;99470.28;5052079;28;20194;-71
2023/07/27 08:12:27;;;;;;;8.80;5.60;;;;;;;14.36;100.00;99468.78;5037422;28;20318;-71
2023/07/27 08:14:52;;;;;;;6.70;6.00;;;;;;;14.40;100.00;99474.53;5052412;28;20249;-71
2023/07/27 08:17:18;;;;;;;6.80;6.13;;;;;;;14.38;100.00;99476.41;5052761;28;20578;-71
2023/07/27 08:19:43;;;;;;;7.13;6.03;;;;;;;14.32;100.00;99471.72;5052862;28;20181;-70
2023/07/27 08:22:08;;;;;;;6.17;5.43;;;;;;;14.32;100.00;99466.56;5042095;28;20578;-72
2023/07/27 08:24:33;;;;;;;6.50;5.27;;;;;;;14.23;100.00;99465.53;5052710;28;20208;-71
2023/07/27 08:26:59;;;;;;;7.93;6.27;;;;;;;14.13;100.00;99456.88;5052700;28;20190;-73
2023/07/27 08:29:24;;;;;;;5.63;4.97;;;;;;;14.23;100.00;99462.94;5052628;28;20532;-73
2023/07/27 08:31:49;;;;;;;5.97;5.50;;;;;;;14.22;100.00;99463.88;5054460;28;20213;-72
2023/07/27 08:34:15;;;;;;;8.60;5.50;;;;;;;14.40;100.00;99461.59;5053477;28;20211;-74
2023/07/27 08:36:40;;;;;;;5.77;5.10;;;;;;;14.59;100.00;99457.50;5051120;28;20752;-75
2023/07/27 08:39:06;;;;;;;6.03;5.10;;;;;;;14.57;100.00;99452.44;5040657;28;20289;-76
2023/07/27 08:41:31;;;;;;;5.80;5.10;;;;;;;14.66;100.00;99450.88;5047182;28;20708;-73
2023/07/27 08:43:58;;;;;;;7.77;5.40;;;;;;;14.62;100.00;99450.28;5056608;28;20213;-75
2023/07/27 08:46:24;;;;;;;5.93;5.40;;;;;;;14.84;100.00;99453.75;5051682;28;20189;-76
2023/07/27 08:48:49;;;;;;;7.50;5.10;;;;;;;14.95;100.00;99460.63;5052389;28;20200;-72
2023/07/27 08:51:15;;;;;;;6.43;5.13;;;;;;;15.07;100.00;99451.84;5042962;28;20225;-73
2023/07/27 08:53:40;;;;;;;7.27;5.90;;;;;;;15.11;100.00;99449.81;5056693;28;20280;-73
2023/07/27 08:56:05;;;;;;;6.20;4.77;;;;;;;15.22;100.00;99454.06;5051865;28;20222;-72
2023/07/27 08:58:31;;;;;;;8.37;4.80;;;;;;;15.26;100.00;99453.69;5050396;28;20178;-73
2023/07/27 09:00:56;;;;;;;6.17;5.00;;;;;;;15.18;100.00;99456.09;5043428;28;20770;-73
2023/07/27 09:03:21;;;;;;;6.60;5.50;;;;;;;15.13;100.00;99458.25;5050383;28;20657;-72
2023/07/27 09:06:00;;;;;;;5.80;4.57;;;;;;;15.19;100.00;99447.38;5051319;28;20276;-73
2023/07/27 09:08:29;;;;;;;5.93;5.33;;;;;;;15.15;100.00;99444.22;5051365;28;20300;-72
2023/07/27 09:11:03;;;;;;;6.63;4.67;;;;;;;15.39;100.00;99450.84;5048651;28;20236;-72
2023/07/27 09:13:31;;;;;;;7.60;4.83;;;;;;;15.54;100.00;99450.50;5050882;28;20177;-73
2023/07/27 09:15:56;;;;;;;5.93;4.47;;;;;;;15.59;100.00;99445.75;5051642;28;20225;-72
2023/07/27 09:18:21;;;;;;;6.47;4.17;;;;;;;15.66;100.00;99449.47;5051031;28;20196;-73
2023/07/27 09:20:47;;;;;;;7.17;3.93;;;;;;;15.67;100.00;99453.69;5047404;28;20225;-72
2023/07/27 09:23:21;;;;;;;4.73;3.57;;;;;;;15.57;100.00;99442.50;5061424;28;20205;-72
2023/07/27 09:25:56;;;;;;;4.20;3.50;;;;;;;15.47;100.00;99432.91;5050077;28;20613;-63
2023/07/27 09:28:26;;;;;;;7.20;3.77;;;;;;;15.56;100.00;99417.50;5051920;28;20268;-62
2023/07/27 09:30:52;;;;;;;5.17;3.53;;;;;;;15.94;100.00;99418.56;5061542;28;20224;-61
2023/07/27 09:33:22;;;;;;;3.90;2.90;;;;;;;16.17;100.00;99426.09;5059081;28;20518;-63
2023/07/27 09:35:49;;;;;;;3.77;2.60;;;;;;;16.21;100.00;99422.25;5051387;28;20246;-62
2023/07/27 09:38:15;;;;;;;3.53;2.60;;;;;;;16.07;100.00;99420.91;5051530;28;20534;-61
2023/07/27 09:40:40;;;;;;;5.43;3.07;;;;;;;16.08;100.00;99419.94;5045580;28;20231;-61
2023/07/27 09:43:07;;;;;;;2.90;2.60;;;;;;;16.19;100.00;99417.22;5063549;28;20657;-60
2023/07/27 09:45:37;;;;;;;2.80;2.50;;;;;;;16.30;100.00;99409.28;5049182;28;20284;-61
2023/07/27 09:48:03;;;;;;;3.17;2.87;;;;;;;16.46;100.00;99406.13;5051537;28;20238;-59
2023/07/27 09:50:30;;;;;;;3.07;2.87;;;;;;;16.69;100.00;99392.00;5034992;28;20308;-61
2023/07/27 09:52:57;;;;;;;2.87;2.40;;;;;;;16.97;100.00;99389.47;5056291;28;20196;-61
2023/07/27 09:55:24;;;;;;;3.80;2.70;;;;;;;17.27;100.00;99391.00;5043538;28;20545;-61
2023/07/27 09:57:50;;;;;;;4.37;2.83;;;;;;;17.40;100.00;99388.91;5051089;28;20187;-62
2023/07/27 10:00:16;;;;;;;3.53;2.50;;;;;;;17.37;100.00;99393.56;5041482;28;20264;-62
2023/07/27 10:02:41;;;;;;;3.30;2.37;;;;;;;17.40;100.00;99378.50;5063931;28;20284;-63
2023/07/27 10:05:07;;;;;;;3.50;2.47;;;;;;;17.44;100.00;99381.63;5051777;28;20193;-62
2023/07/27 10:07:32;;;;;;;3.40;2.17;;;;;;;17.14;100.00;99385.31;5070568;28;20173;-61
2023/07/27 10:10:25;;;;;;;3.17;2.70;;;;;;;17.19;100.00;99380.50;5056298;28;20203;-62
2023/07/27 10:12:50;;;;;;;7.33;3.00;;;;;;;17.43;100.00;99383.38;5039805;28;20316;-62
2023/07/27 10:15:24;;;;;;;3.90;2.90;;;;;;;17.58;100.00;99381.09;5049963;28;20300;-61
2023/07/27 10:17:54;;;;;;;2.87;2.57;;;;;;;17.35;100.00;99380.72;5050393;28;20219;-61
2023/07/27 10:20:31;;;;;;;4.13;3.10;;;;;;;17.46;100.00;99386.69;5041771;28;20667;-62
2023/07/27 10:23:17;;;;;;;2.70;2.50;;;;;;;17.18;100.00;99387.50;5052160;28;20208;-61
2023/07/27 10:25:57;;;;;;;3.37;2.70;;;;;;;17.18;100.00;99390.09;5053166;28;20627;-64
2023/07/27 10:28:47;;;;;;;3.57;3.27;;;;;;;17.25;100.00;99377.34;5053172;28;20218;-57
2023/07/27 10:34:35;;;;;;;9.27;3.80;;;;;;;17.05;100.00;99390.41;5048257;28;20200;-62
2023/07/27 10:37:02;;;;;;;5.33;3.50;;;;;;;16.88;100.00;99389.38;5048640;28;20196;-60
2023/07/27 10:39:29;;;;;;;4.87;3.50;;;;;;;16.58;100.00;99383.44;5053234;28;20178;-59
2023/07/27 10:42:03;;;;;;;7.43;4.10;;;;;;;16.70;100.00;99385.88;5046986;28;20763;-62
2023/07/27 10:50:58;;;;;;;3.50;3.20;;;;;;;16.96;100.00;99380.09;5040987;28;20706;-62
2023/07/27 10:53:26;;;;;;;5.67;3.50;;;;;;;17.00;100.00;99373.63;5039697;28;20182;-59
2023/07/27 10:55:52;;;;;;;5.40;3.77;;;;;;;17.00;100.00;99376.22;5047799;28;20213;-61
2023/07/27 10:58:18;;;;;;;4.37;3.40;;;;;;;17.06;100.00;99373.88;5053360;28;20280;-70
2023/07/27 11:00:44;;;;;;;6.00;3.50;;;;;;;17.01;100.00;99372.66;5025651;28;20597;-70
2023/07/27 11:03:09;;;;;;;7.77;3.33;;;;;;;16.87;100.00;99364.34;5030642;28;20212;-71
2023/07/27 11:05:34;;;;;;;4.73;3.60;;;;;;;16.86;100.00;99372.28;5063016;28;20197;-70
2023/07/27 11:08:03;;;;;;;5.43;3.47;;;;;;;16.67;100.00;99371.38;5050041;28;20276;-70
2023/07/27 11:10:30;;;;;;;5.30;3.67;;;;;;;16.70;100.00;99368.50;5050783;28;20724;-70
2023/07/27 11:12:56;;;;;;;4.27;3.77;;;;;;;16.86;100.00;99369.69;5050618;28;20185;-71
2023/07/27 11:15:24;;;;;;;8.27;4.17;;;;;;;17.01;100.00;99372.66;5015173;28;1056262;-69
2023/07/27 11:17:51;;;;;;;5.60;3.83;;;;;;;17.03;100.00;99357.75;5068520;28;20197;-69
2023/07/27 11:20:20;;;;;;;3.87;3.57;;;;;;;17.24;100.00;99353.13;5054395;28;20197;-70
2023/07/27 11:22:49;;;;;;;6.50;3.53;;;;;;;17.23;100.00;99354.09;5068382;28;20196;-69
2023/07/27 11:25:15;;;;;;;5.20;3.50;;;;;;;17.33;100.00;99348.84;5040561;28;20661;-69
2023/07/27 11:27:40;;;;;;;4.97;3.27;;;;;;;17.39;100.00;99348.25;5053888;28;20193;-69
2023/07/27 11:30:09;;;;;;;5.07;3.60;;;;;;;17.41;100.00;99348.09;5031302;28;20177;-71
2023/07/27 11:32:34;;;;;;;4.57;4.13;;;;;;;17.61;100.00;99354.00;5040853;28;20202;-70